createdAt,value
2018-08-20T02:29:09.692Z,14.78
2018-08-20T02:30:09.260Z,14.69
2018-08-20T02:31:09.370Z,14.66
2018-08-20T03:38:30.656Z,13.99
2018-08-20T04:00:27.826Z,13.69
2018-08-20T04:01:27.754Z,13.69
2018-08-20T04:02:27.751Z,13.68
2018-08-20T04:03:27.746Z,13.65
2018-08-20T04:04:27.714Z,13.69
2018-08-20T04:05:27.701Z,13.65
2018-08-20T04:06:27.694Z,13.66
2018-08-20T04:07:27.694Z,13.68
2018-08-20T04:08:27.681Z,13.68
2018-08-20T04:09:27.663Z,13.66
2018-08-20T04:10:27.649Z,13.59
2018-08-20T04:11:27.636Z,13.68
2018-08-20T04:12:27.638Z,13.63
2018-08-20T04:13:27.609Z,13.63
2018-08-20T04:14:27.643Z,13.65
2018-08-20T04:15:27.592Z,13.61
2018-08-20T04:16:27.579Z,13.61
2018-08-20T04:17:27.579Z,13.57
2018-08-20T04:18:27.564Z,13.61
2018-08-20T04:19:27.542Z,13.57
2018-08-20T04:20:27.532Z,13.55
2018-08-20T04:21:27.521Z,13.59
2018-08-20T04:22:27.559Z,13.55
2018-08-20T04:23:27.505Z,13.59
2018-08-20T04:24:27.502Z,13.57
2018-08-20T04:25:27.480Z,13.53
2018-08-20T04:26:27.463Z,13.54
2018-08-20T04:27:27.503Z,13.54
2018-08-20T04:28:27.445Z,13.53
2018-08-20T04:29:27.432Z,13.62
2018-08-20T04:30:27.434Z,13.59
2018-08-20T04:31:27.424Z,13.57
2018-08-20T04:32:27.430Z,13.59
2018-08-20T04:33:27.399Z,13.57
2018-08-20T04:34:27.390Z,13.55
2018-08-20T04:35:27.373Z,13.51
2018-08-20T04:36:27.402Z,13.55
2018-08-20T04:37:27.361Z,13.57
2018-08-20T04:38:27.336Z,13.55
2018-08-20T04:39:27.320Z,13.54
2018-08-20T04:40:27.312Z,13.57
2018-08-20T04:41:27.295Z,13.62
2018-08-20T04:42:27.314Z,13.62
2018-08-20T04:43:27.280Z,13.57
2018-08-20T04:44:27.265Z,13.61
2018-08-20T04:45:27.260Z,13.53
2018-08-20T04:46:27.245Z,13.54
2018-08-20T04:47:27.261Z,13.55
2018-08-20T04:48:27.219Z,13.54
2018-08-20T04:49:27.210Z,13.54
2018-08-20T04:50:27.366Z,13.59
2018-08-20T04:51:27.221Z,13.47
2018-08-20T04:52:27.197Z,13.59
2018-08-20T04:53:27.167Z,13.63
2018-08-20T04:54:27.157Z,13.50
2018-08-20T04:55:27.168Z,13.57
2018-08-20T04:56:27.128Z,13.59
2018-08-20T04:57:27.142Z,13.57
2018-08-20T04:58:27.118Z,13.54
2018-08-20T04:59:27.096Z,13.55
2018-08-20T05:00:27.089Z,13.55
2018-08-20T05:01:27.085Z,13.53
2018-08-20T05:02:27.089Z,13.57
2018-08-20T05:03:27.058Z,13.54
2018-08-20T05:04:27.054Z,13.53
2018-08-20T05:05:27.043Z,13.57
2018-08-20T05:06:27.015Z,13.59
2018-08-20T05:07:27.043Z,13.61
2018-08-20T05:08:26.995Z,13.57
2018-08-20T05:09:26.990Z,13.59
2018-08-20T05:10:26.978Z,13.68
2018-08-20T05:11:26.966Z,13.57
2018-08-20T05:12:26.947Z,13.69
2018-08-20T05:13:26.953Z,13.68
2018-08-20T05:14:26.927Z,13.61
2018-08-20T05:15:26.936Z,13.65
2018-08-20T05:16:26.945Z,13.68
2018-08-20T05:17:26.891Z,13.71
2018-08-20T05:18:26.909Z,13.68
2018-08-20T05:19:26.887Z,13.71
2018-08-20T05:20:26.884Z,13.71
2018-08-20T05:21:26.889Z,13.63
2018-08-20T05:22:26.835Z,13.71
2018-08-20T05:23:26.862Z,13.68
2018-08-20T05:24:26.828Z,13.71
2018-08-20T05:25:26.817Z,13.72
2018-08-20T05:26:26.794Z,13.69
2018-08-20T05:27:26.787Z,13.71
2018-08-20T05:28:26.788Z,13.72
2018-08-20T05:29:26.830Z,13.71
2018-08-20T05:30:26.752Z,13.69
2018-08-20T05:31:26.738Z,13.73
2018-08-20T05:32:26.725Z,13.71
2018-08-20T05:33:26.739Z,13.72
2018-08-20T05:34:26.726Z,13.71
2018-08-20T05:35:26.695Z,13.69
2018-08-20T05:36:26.685Z,13.73
2018-08-20T05:37:26.667Z,13.69
2018-08-20T05:38:26.681Z,13.66
2018-08-20T05:39:26.649Z,13.72
2018-08-20T05:40:26.653Z,13.72
2018-08-20T05:41:26.628Z,13.79
2018-08-20T05:42:26.611Z,13.79
2018-08-20T05:43:26.610Z,13.83
2018-08-20T05:44:26.586Z,13.86
2018-08-20T05:45:26.576Z,13.84
2018-08-20T05:46:26.565Z,13.91
2018-08-20T05:47:26.556Z,13.90
2018-08-20T05:48:26.568Z,13.96
2018-08-20T05:49:26.549Z,13.96
2018-08-20T05:50:26.543Z,13.91
2018-08-20T05:51:26.506Z,13.99
2018-08-20T05:52:26.501Z,13.96
2018-08-20T05:53:26.500Z,13.96
2018-08-20T05:54:26.473Z,13.90
2018-08-20T05:55:26.466Z,14.01
2018-08-20T05:56:26.458Z,13.88
2018-08-20T05:57:26.440Z,13.94
2018-08-20T05:58:26.444Z,13.96
2018-08-20T05:59:26.423Z,13.91
2018-08-20T06:00:26.406Z,13.90
2018-08-20T06:01:26.394Z,13.99
2018-08-20T06:02:26.388Z,13.98
2018-08-20T06:03:26.387Z,14.06
2018-08-20T06:04:26.360Z,14.04
2018-08-20T06:05:26.355Z,14.08
2018-08-20T06:06:26.340Z,14.05
2018-08-20T06:07:26.331Z,14.11
2018-08-20T06:08:26.327Z,14.11
2018-08-20T06:09:26.307Z,14.01
2018-08-20T06:10:26.292Z,14.11
2018-08-20T06:11:26.285Z,14.04
2018-08-20T06:12:26.272Z,14.20
2018-08-20T06:13:26.271Z,14.06
2018-08-20T06:14:26.254Z,14.13
2018-08-20T06:15:26.236Z,14.20
2018-08-20T06:16:26.231Z,14.16
2018-08-20T06:17:26.218Z,14.20
2018-08-20T06:18:26.218Z,14.23
2018-08-20T06:19:26.197Z,14.17
2018-08-20T06:20:26.183Z,14.30
2018-08-20T06:21:26.171Z,14.26
2018-08-20T06:22:26.170Z,14.26
2018-08-20T06:23:26.163Z,14.23
2018-08-20T06:24:26.136Z,14.48
2018-08-20T06:25:26.133Z,14.64
2018-08-20T06:26:26.118Z,14.85
2018-08-20T06:27:26.104Z,15.11
2018-08-20T06:28:26.109Z,15.25
2018-08-20T06:29:26.085Z,15.41
2018-08-20T06:30:26.070Z,15.62
2018-08-20T06:31:26.061Z,15.89
2018-08-20T06:32:26.051Z,15.96
2018-08-20T06:33:26.049Z,16.04
2018-08-20T06:34:26.027Z,16.34
2018-08-20T06:35:26.018Z,16.47
2018-08-20T06:36:26.003Z,16.57
2018-08-20T06:37:25.992Z,16.78
2018-08-20T06:38:25.990Z,16.99
2018-08-20T06:39:25.971Z,17.07
2018-08-20T06:40:25.956Z,17.25
2018-08-20T06:41:25.946Z,17.47
2018-08-20T06:42:25.936Z,17.53
2018-08-20T06:43:25.940Z,17.65
2018-08-20T06:44:25.915Z,17.92
2018-08-20T06:45:25.900Z,17.96
2018-08-20T06:46:25.900Z,18.16
2018-08-20T06:47:25.881Z,18.23
2018-08-20T06:48:25.881Z,18.36
2018-08-20T06:49:25.868Z,18.41
2018-08-20T06:50:25.849Z,18.66
2018-08-20T06:51:25.834Z,18.79
2018-08-20T06:52:25.825Z,18.83
2018-08-20T06:53:25.824Z,18.97
2018-08-20T06:54:25.814Z,19.12
2018-08-20T06:55:25.797Z,19.21
2018-08-20T06:56:25.781Z,19.28
2018-08-20T06:57:25.774Z,19.38
2018-08-20T06:58:25.776Z,19.43
2018-08-20T06:59:25.745Z,19.68
2018-08-20T07:00:25.734Z,19.83
2018-08-20T07:01:25.723Z,20.01
2018-08-20T07:02:25.715Z,20.19
2018-08-20T07:03:25.715Z,20.37
2018-08-20T07:04:25.692Z,20.48
2018-08-20T07:05:25.677Z,20.48
2018-08-20T07:06:25.722Z,20.60
2018-08-20T07:07:25.657Z,20.69
2018-08-20T07:08:25.660Z,20.81
2018-08-20T07:09:25.633Z,20.91
2018-08-20T07:10:25.623Z,20.91
2018-08-20T07:11:25.611Z,20.97
2018-08-20T07:12:25.599Z,21.11
2018-08-20T07:13:25.612Z,21.26
2018-08-20T07:14:25.579Z,21.24
2018-08-20T07:15:25.566Z,21.38
2018-08-20T07:16:25.556Z,21.61
2018-08-20T07:17:25.561Z,21.81
2018-08-20T07:18:25.536Z,21.86
2018-08-20T07:19:25.548Z,22.01
2018-08-20T07:20:25.513Z,22.17
2018-08-20T07:21:25.500Z,22.23
2018-08-20T07:22:25.491Z,22.46
2018-08-20T07:23:25.488Z,22.49
2018-08-20T07:24:25.477Z,22.59
2018-08-20T07:25:25.454Z,22.63
2018-08-20T07:26:25.443Z,22.70
2018-08-20T07:27:25.435Z,22.64
2018-08-20T07:28:25.425Z,22.75
2018-08-20T07:29:25.421Z,22.82
2018-08-20T07:30:25.402Z,22.89
2018-08-20T07:31:25.387Z,22.96
2018-08-20T07:32:25.377Z,23.04
2018-08-20T07:33:25.365Z,23.04
2018-08-20T07:34:25.458Z,23.18
2018-08-20T07:35:25.349Z,23.22
2018-08-20T07:36:25.333Z,23.38
2018-08-20T07:37:25.321Z,23.45
2018-08-20T07:38:25.309Z,23.60
2018-08-20T07:39:25.310Z,23.56
2018-08-20T07:40:25.287Z,23.68
2018-08-20T07:41:25.281Z,23.87
2018-08-20T07:42:25.308Z,24.08
2018-08-20T07:43:25.257Z,24.15
2018-08-20T07:44:25.267Z,24.12
2018-08-20T07:45:25.231Z,24.24
2018-08-20T07:46:25.219Z,24.52
2018-08-20T07:47:25.208Z,24.60
2018-08-20T07:48:25.198Z,24.56
2018-08-20T07:49:25.201Z,24.75
2018-08-20T07:50:25.201Z,24.82
2018-08-20T07:51:25.165Z,25.04
2018-08-20T07:52:25.154Z,25.20
2018-08-20T07:53:25.142Z,25.34
2018-08-20T07:54:25.144Z,25.51
2018-08-20T07:55:25.120Z,25.49
2018-08-20T07:56:25.110Z,25.60
2018-08-20T07:57:25.098Z,25.56
2018-08-20T07:58:25.095Z,25.76
2018-08-20T07:59:25.088Z,25.74
2018-08-20T08:00:25.067Z,25.72
2018-08-20T08:01:25.055Z,25.69
2018-08-20T08:02:25.045Z,25.74
2018-08-20T08:03:25.033Z,25.75
2018-08-20T08:04:25.037Z,25.82
2018-08-20T08:05:25.010Z,26.00
2018-08-20T08:06:25.000Z,26.31
2018-08-20T08:07:24.992Z,26.53
2018-08-20T08:08:24.977Z,26.78
2018-08-20T08:09:24.979Z,27.01
2018-08-20T08:10:24.954Z,27.05
2018-08-20T08:11:24.952Z,27.09
2018-08-20T08:12:24.932Z,27.08
2018-08-20T08:13:24.921Z,27.03
2018-08-20T08:14:24.926Z,27.01
2018-08-20T08:15:24.900Z,26.84
2018-08-20T08:16:24.889Z,26.90
2018-08-20T08:17:24.881Z,26.98
2018-08-20T08:18:24.872Z,27.03
2018-08-20T08:19:24.869Z,27.06
2018-08-20T08:20:24.879Z,27.11
2018-08-20T08:21:24.834Z,27.15
2018-08-20T08:22:24.822Z,27.39
2018-08-20T08:23:24.822Z,27.43
2018-08-20T08:24:24.817Z,27.52
2018-08-20T08:25:24.790Z,27.83
2018-08-20T08:26:24.790Z,27.98
2018-08-20T08:27:24.767Z,27.90
2018-08-20T08:28:24.762Z,27.84
2018-08-20T08:29:24.760Z,28.03
2018-08-20T08:30:24.736Z,28.18
2018-08-20T08:31:24.724Z,28.27
2018-08-20T08:32:24.715Z,28.27
2018-08-20T08:33:24.701Z,28.40
2018-08-20T08:34:24.702Z,28.64
2018-08-20T08:35:24.681Z,28.60
2018-08-20T08:36:24.670Z,28.77
2018-08-20T08:37:24.659Z,29.08
2018-08-20T08:38:24.646Z,29.30
2018-08-20T08:39:24.649Z,29.37
2018-08-20T08:40:24.625Z,29.52
2018-08-20T08:41:24.635Z,29.79
2018-08-20T08:42:24.605Z,29.79
2018-08-20T08:43:24.594Z,29.69
2018-08-20T08:44:24.594Z,29.95
2018-08-20T08:45:24.571Z,30.13
2018-08-20T08:46:24.562Z,30.21
2018-08-20T08:47:24.549Z,30.25
2018-08-20T08:48:24.535Z,30.37
2018-08-20T08:49:24.547Z,30.51
2018-08-20T08:50:24.517Z,30.45
2018-08-20T08:51:24.504Z,30.23
2018-08-20T08:52:24.495Z,29.88
2018-08-20T08:53:24.482Z,29.89
2018-08-20T08:54:24.485Z,30.04
2018-08-20T08:55:24.459Z,30.26
2018-08-20T08:56:24.449Z,30.15
2018-08-20T08:57:24.439Z,30.00
2018-08-20T08:58:24.426Z,29.69
2018-08-20T08:59:24.433Z,29.81
2018-08-20T09:00:24.455Z,29.79
2018-08-20T09:01:24.395Z,29.74
2018-08-20T09:02:24.387Z,29.78
2018-08-20T09:03:24.377Z,29.84
2018-08-20T09:04:24.372Z,30.18
2018-08-20T09:05:24.349Z,30.61
2018-08-20T09:06:24.341Z,30.93
2018-08-20T09:07:24.417Z,31.19
2018-08-20T09:08:24.317Z,31.23
2018-08-20T09:09:24.321Z,31.07
2018-08-20T09:10:24.295Z,30.98
2018-08-20T09:11:24.285Z,30.83
2018-08-20T09:12:24.274Z,30.83
2018-08-20T09:13:24.274Z,31.05
2018-08-20T09:14:24.270Z,31.07
2018-08-20T09:15:24.243Z,31.07
2018-08-20T09:16:24.232Z,31.00
2018-08-20T09:17:24.222Z,31.01
2018-08-20T09:18:24.255Z,31.18
2018-08-20T09:19:24.221Z,31.34
2018-08-20T09:20:24.186Z,31.01
2018-08-20T09:21:24.181Z,30.96
2018-08-20T09:22:24.165Z,31.13
2018-08-20T09:23:24.153Z,30.78
2018-08-20T09:24:24.142Z,29.69
2018-08-20T09:25:24.144Z,29.05
2018-08-20T09:26:24.119Z,28.20
2018-08-20T09:27:24.110Z,27.84
2018-08-20T09:28:24.098Z,28.20
2018-08-20T09:29:24.085Z,27.74
2018-08-20T09:30:24.084Z,27.58
2018-08-20T09:31:24.066Z,28.25
2018-08-20T09:32:24.141Z,28.76
2018-08-20T09:33:24.043Z,29.25
2018-08-20T09:34:24.034Z,29.49
2018-08-20T09:35:24.032Z,29.49
2018-08-20T09:36:24.010Z,29.47
2018-08-20T09:37:24.001Z,29.48
2018-08-20T09:38:24.127Z,29.57
2018-08-20T09:39:23.977Z,29.66
2018-08-20T09:40:23.977Z,29.74
2018-08-20T09:41:23.954Z,30.04
2018-08-20T09:42:23.944Z,30.26
2018-08-20T09:43:23.932Z,30.37
2018-08-20T09:44:23.920Z,30.45
2018-08-20T09:45:23.924Z,30.25
2018-08-20T09:46:23.900Z,30.03
2018-08-20T09:47:23.888Z,30.13
2018-08-20T09:48:23.879Z,30.07
2018-08-20T09:49:23.871Z,30.34
2018-08-20T09:50:23.878Z,30.49
2018-08-20T09:51:23.845Z,30.75
2018-08-20T09:52:23.852Z,30.23
2018-08-20T09:53:23.909Z,30.19
2018-08-20T09:54:23.812Z,30.11
2018-08-20T09:55:23.814Z,30.04
2018-08-20T09:56:23.790Z,29.81
2018-08-20T09:57:23.779Z,29.21
2018-08-20T09:58:23.771Z,28.80
2018-08-20T09:59:23.764Z,28.62
2018-08-20T10:00:23.757Z,28.46
2018-08-20T10:01:23.734Z,28.20
2018-08-20T10:02:23.722Z,27.86
2018-08-20T10:03:23.724Z,27.65
2018-08-20T10:04:23.704Z,27.31
2018-08-20T10:05:23.718Z,27.11
2018-08-20T10:06:23.680Z,26.98
2018-08-20T10:07:23.731Z,26.65
2018-08-20T10:08:23.676Z,26.51
2018-08-20T10:09:23.649Z,26.29
2018-08-20T10:10:23.648Z,26.16
2018-08-20T10:11:23.626Z,26.08
2018-08-20T10:12:23.619Z,25.93
2018-08-20T10:13:23.605Z,25.85
2018-08-20T10:14:23.593Z,25.82
2018-08-20T10:15:23.595Z,25.75
2018-08-20T10:16:23.572Z,25.63
2018-08-20T10:17:23.559Z,25.61
2018-08-20T10:18:23.574Z,25.57
2018-08-20T10:19:23.539Z,25.51
2018-08-20T10:20:23.540Z,25.45
2018-08-20T10:21:23.515Z,25.45
2018-08-20T10:22:23.504Z,25.38
2018-08-20T10:23:23.495Z,25.39
2018-08-20T10:24:23.482Z,25.30
2018-08-20T10:25:26.343Z,25.23
2018-08-20T10:26:24.267Z,25.17
2018-08-20T10:27:23.452Z,25.08
2018-08-20T10:28:23.439Z,25.09
2018-08-20T10:29:23.430Z,25.11
2018-08-20T10:30:23.480Z,25.12
2018-08-20T10:31:23.405Z,25.16
2018-08-20T10:32:23.402Z,25.01
2018-08-20T10:33:23.385Z,25.11
2018-08-20T10:34:23.466Z,25.02
2018-08-20T10:35:23.386Z,24.89
2018-08-20T10:36:23.360Z,25.02
2018-08-20T10:37:23.340Z,25.01
2018-08-20T10:38:23.336Z,24.99
2018-08-20T10:39:23.320Z,24.93
2018-08-20T10:40:23.321Z,24.98
2018-08-20T10:41:23.297Z,24.97
2018-08-20T10:42:23.283Z,24.98
2018-08-20T10:43:23.278Z,24.94
2018-08-20T10:44:23.268Z,24.94
2018-08-20T10:45:23.264Z,24.93
2018-08-20T10:46:23.244Z,24.98
2018-08-20T10:47:23.233Z,24.93
2018-08-20T10:48:23.221Z,24.97
2018-08-20T10:49:23.211Z,24.99
2018-08-20T10:50:23.207Z,25.01
2018-08-20T10:51:23.189Z,25.08
2018-08-20T10:52:23.175Z,25.05
2018-08-20T10:53:23.165Z,25.01
2018-08-20T10:54:23.153Z,25.09
2018-08-20T10:55:23.154Z,25.16
2018-08-20T10:56:23.193Z,25.05
2018-08-20T10:57:23.122Z,25.08
2018-08-20T10:58:23.109Z,24.99
2018-08-20T10:59:23.099Z,25.01
2018-08-20T11:00:23.098Z,24.98
2018-08-20T11:01:23.076Z,24.87
2018-08-20T11:02:23.069Z,24.79
2018-08-20T11:03:23.055Z,24.71
2018-08-20T11:04:23.045Z,24.66
2018-08-20T11:05:23.052Z,24.56
2018-08-20T11:06:23.022Z,24.60
2018-08-20T11:07:23.023Z,24.59
2018-08-20T11:08:23.001Z,24.51
2018-08-20T11:09:22.988Z,24.53
2018-08-20T11:10:22.986Z,24.55
2018-08-20T11:11:22.970Z,24.53
2018-08-20T11:12:22.959Z,24.48
2018-08-20T11:13:22.945Z,24.46
2018-08-20T11:14:22.936Z,24.45
2018-08-20T11:15:22.938Z,24.52
2018-08-20T11:16:22.913Z,24.51
2018-08-20T11:17:22.903Z,24.52
2018-08-20T11:18:22.986Z,24.56
2018-08-20T11:19:22.883Z,24.56
2018-08-20T11:20:22.882Z,24.63
2018-08-20T11:21:22.857Z,24.64
2018-08-20T11:22:22.846Z,24.53
2018-08-20T11:23:22.835Z,24.64
2018-08-20T11:24:22.823Z,24.64
2018-08-20T11:25:22.813Z,24.71
2018-08-20T11:26:22.815Z,24.77
2018-08-20T11:27:22.792Z,24.70
2018-08-20T11:28:22.779Z,24.75
2018-08-20T11:29:22.772Z,24.70
2018-08-20T11:30:22.862Z,24.71
2018-08-20T11:31:22.763Z,24.66
2018-08-20T11:32:22.737Z,24.64
2018-08-20T11:33:22.725Z,24.71
2018-08-20T11:34:22.714Z,24.70
2018-08-20T11:35:22.702Z,24.75
2018-08-20T11:36:22.702Z,24.71
2018-08-20T11:37:22.680Z,24.70
2018-08-20T11:38:22.671Z,24.80
2018-08-20T11:39:22.662Z,24.80
2018-08-20T11:40:22.649Z,24.79
2018-08-20T11:41:22.646Z,24.90
2018-08-20T11:42:22.640Z,24.84
2018-08-20T11:43:22.643Z,24.79
2018-08-20T11:44:22.609Z,24.74
2018-08-20T11:45:22.595Z,24.71
2018-08-20T11:46:22.596Z,24.74
2018-08-20T11:47:22.576Z,24.75
2018-08-20T11:48:22.561Z,24.74
2018-08-20T11:49:22.548Z,24.71
2018-08-20T11:50:22.543Z,24.74
2018-08-20T11:51:22.538Z,24.77
2018-08-20T11:52:22.516Z,24.75
2018-08-20T11:53:22.507Z,24.80
2018-08-20T11:54:22.518Z,24.80
2018-08-20T11:55:22.486Z,24.74
2018-08-20T11:56:22.487Z,24.75
2018-08-20T11:57:22.475Z,24.77
2018-08-20T11:58:22.460Z,24.75
2018-08-20T11:59:22.438Z,24.79
2018-08-20T12:00:22.431Z,24.64
2018-08-20T12:01:22.435Z,24.59
2018-08-20T12:02:22.449Z,24.61
2018-08-20T12:03:22.494Z,24.55
2018-08-20T12:04:22.388Z,24.61
2018-08-20T12:05:22.416Z,24.59
2018-08-20T12:06:22.373Z,24.61
2018-08-20T12:07:22.486Z,24.61
2018-08-20T12:08:22.343Z,24.59
2018-08-20T12:09:22.328Z,24.53
2018-08-20T12:10:22.334Z,24.44
2018-08-20T12:11:22.318Z,24.39
2018-08-20T12:12:22.295Z,24.51
2018-08-20T12:13:22.284Z,24.42
2018-08-20T12:14:22.318Z,24.53
2018-08-20T12:15:22.263Z,24.53
2018-08-20T12:16:22.288Z,24.61
2018-08-20T12:17:22.365Z,24.56
2018-08-20T12:18:22.230Z,24.67
2018-08-20T12:19:22.217Z,24.59
2018-08-20T12:20:22.227Z,24.63
2018-08-20T12:21:22.210Z,24.55
2018-08-20T12:22:22.213Z,24.61
2018-08-20T12:23:22.176Z,24.59
2018-08-20T12:24:22.165Z,24.60
2018-08-20T12:25:22.274Z,24.59
2018-08-20T12:26:22.153Z,24.63
2018-08-20T12:27:22.130Z,24.61
2018-08-20T12:28:22.443Z,24.64
2018-08-20T12:29:22.139Z,24.55
2018-08-20T12:30:22.169Z,24.60
2018-08-20T12:31:22.102Z,24.61
2018-08-20T12:32:22.169Z,24.66
2018-08-20T12:33:22.131Z,24.61
2018-08-20T12:34:22.099Z,24.60
2018-08-20T12:35:22.042Z,24.67
2018-08-20T12:36:22.046Z,24.61
2018-08-20T12:37:22.020Z,24.60
2018-08-20T12:38:22.105Z,24.60
2018-08-20T12:39:21.999Z,24.64
2018-08-20T12:40:22.108Z,24.64
2018-08-20T12:41:22.109Z,24.63
2018-08-20T12:42:21.969Z,24.63
2018-08-20T12:43:21.957Z,24.63
2018-08-20T12:44:21.949Z,24.79
2018-08-20T12:45:21.935Z,24.74
2018-08-20T12:46:21.937Z,24.87
2018-08-20T12:47:21.910Z,24.92
2018-08-20T12:48:21.900Z,24.87
2018-08-20T12:49:21.893Z,24.82
2018-08-20T12:50:21.878Z,24.84
2018-08-20T12:51:21.880Z,24.86
2018-08-20T12:52:21.857Z,24.90
2018-08-20T12:53:21.849Z,24.86
2018-08-20T12:54:21.834Z,24.90
2018-08-20T12:55:21.828Z,24.92
2018-08-20T12:56:21.832Z,24.93
2018-08-20T12:57:21.805Z,24.97
2018-08-20T12:58:21.790Z,25.05
2018-08-20T12:59:21.784Z,25.04
2018-08-20T13:00:21.784Z,24.90
2018-08-20T13:01:21.770Z,24.89
2018-08-20T13:02:21.748Z,24.83
2018-08-20T13:03:21.734Z,24.87
2018-08-20T13:04:21.723Z,24.75
2018-08-20T13:05:21.716Z,24.75
2018-08-20T13:06:21.714Z,24.79
2018-08-20T13:07:21.694Z,24.71
2018-08-20T13:08:21.682Z,24.71
2018-08-20T13:09:21.667Z,24.60
2018-08-20T13:10:21.657Z,24.64
2018-08-20T13:11:21.673Z,24.64
2018-08-20T13:12:21.635Z,24.63
2018-08-20T13:13:21.625Z,24.64
2018-08-20T13:14:21.631Z,24.75
2018-08-20T13:15:21.605Z,24.79
2018-08-20T13:16:21.696Z,24.75
2018-08-20T13:17:21.583Z,24.86
2018-08-20T13:18:21.575Z,24.80
2018-08-20T13:19:21.563Z,24.75
2018-08-20T13:20:21.548Z,24.86
2018-08-20T13:21:21.551Z,24.87
2018-08-20T13:22:21.526Z,24.93
2018-08-20T13:23:21.520Z,25.01
2018-08-20T13:24:21.510Z,24.90
2018-08-20T13:25:21.501Z,24.92
2018-08-20T13:26:21.512Z,25.02
2018-08-20T13:27:21.473Z,24.94
2018-08-20T13:28:21.464Z,25.01
2018-08-20T13:29:21.452Z,24.99
2018-08-20T13:30:21.441Z,24.93
2018-08-20T13:31:21.428Z,24.93
2018-08-20T13:32:21.428Z,24.89
2018-08-20T13:33:21.410Z,24.93
2018-08-20T13:34:21.396Z,24.89
2018-08-20T13:35:21.383Z,24.90
2018-08-20T13:36:21.375Z,24.86
2018-08-20T13:37:21.393Z,24.82
2018-08-20T13:38:21.354Z,24.75
2018-08-20T13:39:21.341Z,24.64
2018-08-20T13:40:21.334Z,24.61
2018-08-20T13:41:21.318Z,24.61
2018-08-20T13:42:21.318Z,24.70
2018-08-20T13:43:21.297Z,24.64
2018-08-20T13:44:21.286Z,24.71
2018-08-20T13:45:21.275Z,24.82
2018-08-20T13:46:21.266Z,24.77
2018-08-20T13:47:21.266Z,24.87
2018-08-20T13:48:21.243Z,24.80
2018-08-20T13:49:21.231Z,24.90
2018-08-20T13:50:21.219Z,24.87
2018-08-20T13:51:21.208Z,24.90
2018-08-20T13:52:21.209Z,24.93
2018-08-20T13:53:21.187Z,24.97
2018-08-20T13:54:21.179Z,24.98
2018-08-20T13:55:21.165Z,24.97
2018-08-20T13:56:21.158Z,25.01
2018-08-20T13:57:21.184Z,24.98
2018-08-20T13:58:21.132Z,25.09
2018-08-20T13:59:21.121Z,25.16
2018-08-20T14:00:21.116Z,25.14
2018-08-20T14:01:21.103Z,25.16
2018-08-20T14:02:21.111Z,25.19
2018-08-20T14:03:21.119Z,25.23
2018-08-20T14:04:21.067Z,25.27
2018-08-20T14:05:21.060Z,25.22
2018-08-20T14:06:21.044Z,25.17
2018-08-20T14:07:21.058Z,25.22
2018-08-20T14:08:21.027Z,25.16
2018-08-20T14:09:21.152Z,25.22
2018-08-20T14:10:21.170Z,25.22
2018-08-20T14:11:20.991Z,25.20
2018-08-20T14:12:20.999Z,25.22
2018-08-20T14:13:20.993Z,25.19
2018-08-20T14:14:20.956Z,25.12
2018-08-20T14:15:20.946Z,25.22
2018-08-20T14:16:20.939Z,25.14
2018-08-20T14:17:20.940Z,25.19
2018-08-20T14:18:21.042Z,25.29
2018-08-20T14:19:20.903Z,25.22
2018-08-20T14:20:20.891Z,25.34
2018-08-20T14:21:20.880Z,25.30
2018-08-20T14:22:20.878Z,25.30
2018-08-20T14:23:20.871Z,25.30
2018-08-20T14:24:20.850Z,25.30
2018-08-20T14:25:20.837Z,25.30
2018-08-20T14:26:20.830Z,25.17
2018-08-20T14:27:20.830Z,25.20
2018-08-20T14:28:20.802Z,25.22
2018-08-20T14:29:20.911Z,25.23
2018-08-20T14:30:20.860Z,25.19
2018-08-20T14:31:20.768Z,25.16
2018-08-20T14:32:20.768Z,25.20
2018-08-20T14:33:20.757Z,25.19
2018-08-20T14:34:20.740Z,25.17
2018-08-20T14:35:20.728Z,25.19
2018-08-20T14:36:20.719Z,25.11
2018-08-20T14:37:20.745Z,25.05
2018-08-20T14:38:20.694Z,25.07
2018-08-20T14:39:20.687Z,25.11
2018-08-20T14:40:20.671Z,25.14
2018-08-20T14:41:20.661Z,25.05
2018-08-20T14:42:20.659Z,25.08
2018-08-20T14:43:20.637Z,25.02
2018-08-20T14:44:20.628Z,25.04
2018-08-20T14:45:20.618Z,25.01
2018-08-20T14:46:20.609Z,25.01
2018-08-20T14:47:20.605Z,25.05
2018-08-20T14:48:20.590Z,24.99
2018-08-20T14:49:20.580Z,25.04
2018-08-20T14:50:20.562Z,25.01
2018-08-20T14:51:20.788Z,25.02
2018-08-20T14:52:20.561Z,24.93
2018-08-20T14:53:20.558Z,24.93
2018-08-20T14:54:20.518Z,25.01
2018-08-20T14:55:20.564Z,24.92
2018-08-20T14:56:20.496Z,24.92
2018-08-20T14:57:20.508Z,25.01
2018-08-20T14:58:20.473Z,24.94
2018-08-20T14:59:20.460Z,24.89
2018-08-20T15:00:20.456Z,24.87
2018-08-20T15:01:20.445Z,24.94
2018-08-20T15:02:20.462Z,24.83
2018-08-20T15:03:20.419Z,24.84
2018-08-20T15:04:20.411Z,24.86
2018-08-20T15:05:20.395Z,24.89
2018-08-20T15:06:20.384Z,24.79
2018-08-20T15:07:20.384Z,24.84
2018-08-20T15:08:20.364Z,24.83
2018-08-20T15:09:20.522Z,24.87
2018-08-20T15:10:20.340Z,24.80
2018-08-20T15:11:20.329Z,24.79
2018-08-20T15:12:20.333Z,24.79
2018-08-20T15:13:20.311Z,24.71
2018-08-20T15:14:20.299Z,24.84
2018-08-20T15:15:20.497Z,24.79
2018-08-20T15:16:20.274Z,24.77
2018-08-20T15:17:20.277Z,24.84
2018-08-20T15:18:20.252Z,24.79
2018-08-20T15:19:20.242Z,24.80
2018-08-20T15:20:20.236Z,24.77
2018-08-20T15:21:20.224Z,24.80
2018-08-20T15:22:20.222Z,24.75
2018-08-20T15:23:20.205Z,24.71
2018-08-20T15:24:20.231Z,24.74
2018-08-20T15:25:20.302Z,24.74
2018-08-20T15:26:20.292Z,24.82
2018-08-20T15:27:20.314Z,24.79
2018-08-20T15:28:20.224Z,24.75
2018-08-20T15:29:20.247Z,24.75
2018-08-20T15:30:20.122Z,24.77
2018-08-20T15:31:20.124Z,24.77
2018-08-20T15:32:20.152Z,24.61
2018-08-20T15:33:20.200Z,24.60
2018-08-20T15:34:20.080Z,24.63
2018-08-20T15:35:20.074Z,24.70
2018-08-20T15:36:20.055Z,24.64
2018-08-20T15:37:20.044Z,24.64
2018-08-20T15:38:20.048Z,24.71
2018-08-20T15:39:20.071Z,24.60
2018-08-20T15:40:20.011Z,24.63
2018-08-20T15:41:20.005Z,24.61
2018-08-20T15:42:19.990Z,24.67
2018-08-20T15:43:19.992Z,24.61
2018-08-20T15:44:19.984Z,24.63
2018-08-20T15:45:19.956Z,24.56
2018-08-20T15:46:20.033Z,24.59
2018-08-20T15:47:19.937Z,24.53
2018-08-20T15:48:19.993Z,24.53
2018-08-20T15:49:19.927Z,24.51
2018-08-20T15:50:19.917Z,24.48
2018-08-20T15:51:22.458Z,24.52
2018-08-20T15:52:19.884Z,24.48
2018-08-20T15:53:20.067Z,24.46
2018-08-20T15:54:19.872Z,24.46
2018-08-20T15:55:19.847Z,24.49
2018-08-20T15:56:19.834Z,24.55
2018-08-20T15:57:19.828Z,24.53
2018-08-20T15:58:19.831Z,24.52
2018-08-20T15:59:19.803Z,24.49
2018-08-20T16:00:19.799Z,24.55
2018-08-20T16:01:19.782Z,24.48
2018-08-20T16:02:19.769Z,24.36
2018-08-20T16:03:19.772Z,24.41
2018-08-20T16:04:19.748Z,24.41
2018-08-20T16:05:19.745Z,24.36
2018-08-20T16:06:19.727Z,24.27
2018-08-20T16:07:19.714Z,24.27
2018-08-20T16:08:19.725Z,24.29
2018-08-20T16:09:19.739Z,24.29
2018-08-20T16:10:19.713Z,24.26
2018-08-20T16:11:19.799Z,24.19
2018-08-20T16:12:19.660Z,24.11
2018-08-20T16:13:19.669Z,24.11
2018-08-20T16:14:19.640Z,24.29
2018-08-20T16:15:19.689Z,24.23
2018-08-20T16:16:19.618Z,24.16
2018-08-20T16:17:19.608Z,24.14
2018-08-20T16:18:19.604Z,24.24
2018-08-20T16:19:19.585Z,24.12
2018-08-20T16:20:19.573Z,24.14
2018-08-20T16:21:19.568Z,24.16
2018-08-20T16:22:19.560Z,24.08
2018-08-20T16:23:19.554Z,24.04
2018-08-20T16:24:19.527Z,24.09
2018-08-20T16:25:19.517Z,24.02
2018-08-20T16:26:19.507Z,24.00
2018-08-20T16:27:19.497Z,23.92
2018-08-20T16:28:19.496Z,24.04
2018-08-20T16:29:19.472Z,24.02
2018-08-20T16:30:19.463Z,23.97
2018-08-20T16:31:19.467Z,23.90
2018-08-20T16:32:19.442Z,23.96
2018-08-20T16:33:19.438Z,23.96
2018-08-20T16:34:19.420Z,23.90
2018-08-20T16:35:19.409Z,23.92
2018-08-20T16:36:19.397Z,23.92
2018-08-20T16:37:19.388Z,23.93
2018-08-20T16:38:19.388Z,23.94
2018-08-20T16:39:19.391Z,23.92
2018-08-20T16:40:19.351Z,23.87
2018-08-20T16:41:19.344Z,23.87
2018-08-20T16:42:19.331Z,23.81
2018-08-20T16:43:19.343Z,23.86
2018-08-20T16:44:19.308Z,23.87
2018-08-20T16:45:19.348Z,23.90
2018-08-20T16:46:19.310Z,23.89
2018-08-20T16:47:19.275Z,23.92
2018-08-20T16:48:19.275Z,23.87